FGAGS LTBW-LTBW
Flight info
| Callsign | FGAGS |
|---|---|
| Flight time | 0h 36m |
| Altitude | 5000 |
| Route | TRAFFIC PATERN |
| Aircraft | C172/L-SFG/C |
Departure
| Time | 2026-05-05 16:56 |
|---|---|
| Airport | İstanbul Hezarfen Airfield (LTBW) |
Arrival
| Time | 2026-05-05 17:33 |
|---|---|
| Airport | İstanbul Hezarfen Airfield (LTBW) |
| Time | Latitude | Longitude | Altitude | Speed | Heading |
|---|---|---|---|---|---|
| 2026-05-05 16:38 | 41.10373 | 28.55021 | 50 ft | 0 kts | 228° |
| 2026-05-05 16:53 | 41.10372 | 28.55016 | 51 ft | 2 kts | 265° |
| 2026-05-05 16:53 | 41.10380 | 28.55011 | 50 ft | 4 kts | 28° |
| 2026-05-05 16:53 | 41.10395 | 28.55018 | 51 ft | 6 kts | 323° |
| 2026-05-05 16:54 | 41.10421 | 28.54994 | 51 ft | 5 kts | 333° |
| 2026-05-05 16:54 | 41.10442 | 28.55019 | 52 ft | 8 kts | 48° |
| 2026-05-05 16:54 | 41.10468 | 28.55064 | 52 ft | 0 kts | 50° |
| 2026-05-05 16:55 | 41.10470 | 28.55068 | 52 ft | 1 kts | 55° |
| 2026-05-05 16:55 | 41.10495 | 28.55088 | 52 ft | 11 kts | 333° |
| 2026-05-05 16:55 | 41.10495 | 28.55028 | 52 ft | 7 kts | 240° |
| 2026-05-05 16:56 | 41.10320 | 28.54699 | 41 ft | 81 kts | 235° |
| 2026-05-05 16:56 | 41.09933 | 28.54011 | 242 ft | 100 kts | 234° |
| 2026-05-05 16:56 | 41.09471 | 28.53296 | 569 ft | 103 kts | 229° |
| 2026-05-05 16:56 | 41.08958 | 28.52606 | 897 ft | 106 kts | 226° |
| 2026-05-05 16:57 | 41.08416 | 28.51921 | 1239 ft | 111 kts | 226° |
| 2026-05-05 16:57 | 41.07807 | 28.51240 | 1496 ft | 117 kts | 221° |
| 2026-05-05 16:57 | 41.07051 | 28.50950 | 1698 ft | 128 kts | 172° |
| 2026-05-05 16:57 | 41.06205 | 28.51453 | 1701 ft | 140 kts | 137° |
| 2026-05-05 16:58 | 41.05611 | 28.52460 | 1771 ft | 141 kts | 126° |
| 2026-05-05 16:58 | 41.04980 | 28.53485 | 1752 ft | 146 kts | 128° |
| 2026-05-05 16:58 | 41.04590 | 28.54690 | 1663 ft | 144 kts | 86° |
| 2026-05-05 16:58 | 41.05032 | 28.55808 | 1611 ft | 139 kts | 43° |
| 2026-05-05 16:59 | 41.05745 | 28.56634 | 1598 ft | 138 kts | 39° |
| 2026-05-05 16:59 | 41.06484 | 28.57406 | 1721 ft | 128 kts | 37° |
| 2026-05-05 16:59 | 41.07161 | 28.58096 | 1993 ft | 119 kts | 36° |
| 2026-05-05 16:59 | 41.07803 | 28.58748 | 2240 ft | 114 kts | 36° |
| 2026-05-05 17:00 | 41.08418 | 28.59376 | 2487 ft | 110 kts | 36° |
| 2026-05-05 17:00 | 41.09013 | 28.59998 | 2749 ft | 108 kts | 36° |
| 2026-05-05 17:00 | 41.09611 | 28.60634 | 2929 ft | 114 kts | 36° |
| 2026-05-05 17:00 | 41.10247 | 28.61314 | 3003 ft | 121 kts | 36° |
| 2026-05-05 17:01 | 41.10915 | 28.62035 | 3048 ft | 127 kts | 36° |
| 2026-05-05 17:01 | 41.11608 | 28.62779 | 3056 ft | 129 kts | 36° |
| 2026-05-05 17:01 | 41.12318 | 28.63528 | 3063 ft | 131 kts | 36° |
| 2026-05-05 17:01 | 41.13030 | 28.64284 | 3065 ft | 131 kts | 36° |
| 2026-05-05 17:02 | 41.13741 | 28.65047 | 3067 ft | 131 kts | 36° |
| 2026-05-05 17:02 | 41.14459 | 28.65808 | 3077 ft | 133 kts | 36° |
| 2026-05-05 17:02 | 41.15183 | 28.66567 | 3078 ft | 133 kts | 36° |
| 2026-05-05 17:02 | 41.15913 | 28.67330 | 3073 ft | 134 kts | 36° |
| 2026-05-05 17:03 | 41.16658 | 28.68111 | 2889 ft | 144 kts | 36° |
| 2026-05-05 17:03 | 41.17486 | 28.68961 | 2511 ft | 154 kts | 36° |
| 2026-05-05 17:03 | 41.18229 | 28.69727 | 2116 ft | 122 kts | 37° |
| 2026-05-05 17:03 | 41.18846 | 28.70369 | 1811 ft | 103 kts | 37° |
| 2026-05-05 17:04 | 41.19395 | 28.70835 | 1610 ft | 87 kts | 18° |
| 2026-05-05 17:04 | 41.20083 | 28.70896 | 1333 ft | 118 kts | 359° |
| 2026-05-05 17:04 | 41.20866 | 28.70861 | 1186 ft | 106 kts | 0° |
| 2026-05-05 17:04 | 41.21631 | 28.70834 | 1014 ft | 124 kts | 360° |
| 2026-05-05 17:05 | 41.22513 | 28.70816 | 892 ft | 115 kts | 2° |
| 2026-05-05 17:05 | 41.23230 | 28.70821 | 761 ft | 95 kts | 0° |
| 2026-05-05 17:05 | 41.23777 | 28.70795 | 702 ft | 68 kts | 359° |
| 2026-05-05 17:05 | 41.24299 | 28.70773 | 671 ft | 76 kts | 360° |
| 2026-05-05 17:06 | 41.24882 | 28.70766 | 588 ft | 84 kts | 360° |
| 2026-05-05 17:06 | 41.25551 | 28.70749 | 464 ft | 115 kts | 0° |
| 2026-05-05 17:06 | 41.26420 | 28.70734 | 369 ft | 120 kts | 0° |
| 2026-05-05 17:06 | 41.27031 | 28.70722 | 332 ft | 66 kts | 359° |
| 2026-05-05 17:07 | 41.27488 | 28.70705 | 386 ft | 80 kts | 1° |
| 2026-05-05 17:07 | 41.28129 | 28.70682 | 506 ft | 106 kts | 2° |
| 2026-05-05 17:07 | 41.28920 | 28.70666 | 608 ft | 119 kts | 357° |
| 2026-05-05 17:07 | 41.29753 | 28.70671 | 809 ft | 119 kts | 1° |
| 2026-05-05 17:08 | 41.30485 | 28.70380 | 1169 ft | 108 kts | 298° |
| 2026-05-05 17:08 | 41.30439 | 28.69375 | 1476 ft | 115 kts | 270° |
| 2026-05-05 17:08 | 41.30375 | 28.68227 | 1503 ft | 131 kts | 268° |
| 2026-05-05 17:08 | 41.30256 | 28.66983 | 1556 ft | 134 kts | 259° |
| 2026-05-05 17:09 | 41.29612 | 28.66284 | 1837 ft | 130 kts | 188° |
| 2026-05-05 17:09 | 41.28633 | 28.66132 | 1561 ft | 155 kts | 186° |
| 2026-05-05 17:09 | 41.27589 | 28.65968 | 1289 ft | 136 kts | 187° |
| 2026-05-05 17:09 | 41.26753 | 28.65809 | 1123 ft | 120 kts | 189° |
| 2026-05-05 17:10 | 41.25824 | 28.65642 | 1001 ft | 146 kts | 188° |
| 2026-05-05 17:10 | 41.24786 | 28.65462 | 866 ft | 156 kts | 182° |
| 2026-05-05 17:10 | 41.24110 | 28.66233 | 1130 ft | 130 kts | 95° |
| 2026-05-05 17:10 | 41.24273 | 28.67419 | 1133 ft | 131 kts | 66° |
| 2026-05-05 17:11 | 41.24675 | 28.68551 | 931 ft | 145 kts | 63° |
| 2026-05-05 17:11 | 41.25123 | 28.69727 | 748 ft | 125 kts | 61° |
| 2026-05-05 17:11 | 41.25610 | 28.70521 | 523 ft | 101 kts | 32° |
| 2026-05-05 17:11 | 41.26233 | 28.70713 | 420 ft | 87 kts | 4° |
| 2026-05-05 17:12 | 41.26773 | 28.70726 | 334 ft | 69 kts | 0° |
| 2026-05-05 17:12 | 41.27238 | 28.70708 | 394 ft | 75 kts | 359° |
| 2026-05-05 17:12 | 41.27864 | 28.70676 | 535 ft | 102 kts | 359° |
| 2026-05-05 17:12 | 41.28636 | 28.70677 | 643 ft | 118 kts | 360° |
| 2026-05-05 17:13 | 41.29483 | 28.70647 | 772 ft | 124 kts | 358° |
| 2026-05-05 17:13 | 41.30235 | 28.70631 | 1194 ft | 111 kts | 359° |
| 2026-05-05 17:13 | 41.30752 | 28.69973 | 1422 ft | 116 kts | 275° |
| 2026-05-05 17:13 | 41.30739 | 28.68806 | 1399 ft | 134 kts | 270° |
| 2026-05-05 17:14 | 41.30130 | 28.67966 | 1431 ft | 141 kts | 181° |
| 2026-05-05 17:14 | 41.29108 | 28.67973 | 1239 ft | 151 kts | 178° |
| 2026-05-05 17:14 | 41.28033 | 28.68037 | 1064 ft | 156 kts | 176° |
| 2026-05-05 17:14 | 41.26952 | 28.68182 | 949 ft | 156 kts | 174° |
| 2026-05-05 17:15 | 41.25887 | 28.68316 | 859 ft | 138 kts | 176° |
| 2026-05-05 17:15 | 41.25047 | 28.68414 | 842 ft | 119 kts | 173° |
| 2026-05-05 17:15 | 41.24313 | 28.68753 | 937 ft | 107 kts | 109° |
| 2026-05-05 17:15 | 41.24256 | 28.69815 | 861 ft | 116 kts | 59° |
| 2026-05-05 17:16 | 41.24864 | 28.70449 | 650 ft | 105 kts | 24° |
| 2026-05-05 17:16 | 41.25469 | 28.70672 | 507 ft | 78 kts | 9° |
| 2026-05-05 17:16 | 41.25989 | 28.70739 | 394 ft | 76 kts | 0° |
| 2026-05-05 17:16 | 41.26547 | 28.70733 | 346 ft | 74 kts | 359° |
| 2026-05-05 17:17 | 41.27031 | 28.70726 | 337 ft | 72 kts | 360° |
| 2026-05-05 17:17 | 41.27547 | 28.70694 | 459 ft | 79 kts | 355° |
| 2026-05-05 17:17 | 41.28147 | 28.70704 | 520 ft | 100 kts | 0° |
| 2026-05-05 17:17 | 41.28909 | 28.70669 | 640 ft | 117 kts | 357° |
| 2026-05-05 17:18 | 41.29744 | 28.70580 | 794 ft | 123 kts | 354° |
| 2026-05-05 17:18 | 41.30144 | 28.69817 | 1141 ft | 116 kts | 278° |
| 2026-05-05 17:18 | 41.30176 | 28.68746 | 1050 ft | 113 kts | 270° |
| 2026-05-05 17:18 | 41.29673 | 28.68041 | 875 ft | 119 kts | 190° |
| 2026-05-05 17:19 | 41.28799 | 28.67976 | 835 ft | 132 kts | 180° |
| 2026-05-05 17:19 | 41.27846 | 28.68068 | 882 ft | 141 kts | 174° |
| 2026-05-05 17:19 | 41.26855 | 28.68261 | 861 ft | 141 kts | 171° |
| 2026-05-05 17:19 | 41.26097 | 28.68060 | 894 ft | 105 kts | 246° |
| 2026-05-05 17:20 | 41.26420 | 28.67300 | 909 ft | 117 kts | 349° |
| 2026-05-05 17:20 | 41.27016 | 28.67946 | 990 ft | 133 kts | 83° |
| 2026-05-05 17:20 | 41.26434 | 28.68677 | 1215 ft | 133 kts | 189° |
| 2026-05-05 17:20 | 41.25977 | 28.67845 | 1484 ft | 113 kts | 288° |
| 2026-05-05 17:21 | 41.26553 | 28.67467 | 1770 ft | 108 kts | 17° |
| 2026-05-05 17:21 | 41.26744 | 28.68456 | 1319 ft | 143 kts | 127° |
| 2026-05-05 17:21 | 41.25894 | 28.68875 | 937 ft | 124 kts | 169° |
| 2026-05-05 17:22 | 41.25572 | 28.70406 | 647 ft | 112 kts | 41° |
| 2026-05-05 17:22 | 41.26288 | 28.70711 | 435 ft | 109 kts | 4° |
| 2026-05-05 17:22 | 41.27002 | 28.70713 | 421 ft | 103 kts | 359° |
| 2026-05-05 17:22 | 41.27661 | 28.70709 | 335 ft | 72 kts | 359° |
| 2026-05-05 17:23 | 41.28165 | 28.70690 | 389 ft | 87 kts | 360° |
| 2026-05-05 17:23 | 41.28825 | 28.70659 | 644 ft | 99 kts | 360° |
| 2026-05-05 17:23 | 41.29560 | 28.70679 | 836 ft | 113 kts | 360° |
| 2026-05-05 17:23 | 41.30354 | 28.70617 | 1015 ft | 120 kts | 357° |
| 2026-05-05 17:24 | 41.30924 | 28.69996 | 1286 ft | 119 kts | 280° |
| 2026-05-05 17:24 | 41.30960 | 28.68838 | 1312 ft | 133 kts | 274° |
| 2026-05-05 17:24 | 41.30735 | 28.67677 | 1519 ft | 133 kts | 219° |
| 2026-05-05 17:24 | 41.29794 | 28.67418 | 1491 ft | 148 kts | 189° |
| 2026-05-05 17:25 | 41.28775 | 28.67273 | 1559 ft | 147 kts | 186° |
| 2026-05-05 17:25 | 41.28093 | 28.67209 | 1574 ft | 148 kts | 185° |
| 2026-05-05 17:25 | 41.26767 | 28.67003 | 1808 ft | 138 kts | 208° |
| 2026-05-05 17:25 | 41.26154 | 28.66076 | 1885 ft | 135 kts | 257° |
| 2026-05-05 17:26 | 41.26123 | 28.64847 | 1896 ft | 135 kts | 279° |
| 2026-05-05 17:26 | 41.26217 | 28.63592 | 1893 ft | 137 kts | 281° |
| 2026-05-05 17:26 | 41.26339 | 28.62323 | 1846 ft | 142 kts | 281° |
| 2026-05-05 17:26 | 41.26478 | 28.60992 | 1688 ft | 148 kts | 283° |
| 2026-05-05 17:27 | 41.26586 | 28.59634 | 1602 ft | 147 kts | 279° |
| 2026-05-05 17:27 | 41.26648 | 28.58360 | 1594 ft | 124 kts | 278° |
| 2026-05-05 17:27 | 41.26681 | 28.57309 | 1571 ft | 106 kts | 277° |
| 2026-05-05 17:27 | 41.26697 | 28.56384 | 1561 ft | 95 kts | 277° |
| 2026-05-05 17:28 | 41.26524 | 28.55594 | 1562 ft | 97 kts | 224° |
| 2026-05-05 17:28 | 41.25766 | 28.55348 | 1591 ft | 129 kts | 185° |
| 2026-05-05 17:28 | 41.24798 | 28.55330 | 1600 ft | 144 kts | 180° |
| 2026-05-05 17:28 | 41.23788 | 28.55365 | 1595 ft | 150 kts | 179° |
| 2026-05-05 17:29 | 41.22768 | 28.55423 | 1787 ft | 140 kts | 178° |
| 2026-05-05 17:29 | 41.21799 | 28.55486 | 1942 ft | 141 kts | 178° |
| 2026-05-05 17:29 | 41.20803 | 28.55555 | 2021 ft | 146 kts | 178° |
| 2026-05-05 17:29 | 41.19776 | 28.55625 | 2043 ft | 149 kts | 178° |
| 2026-05-05 17:30 | 41.18736 | 28.55699 | 2057 ft | 151 kts | 178° |
| 2026-05-05 17:30 | 41.17685 | 28.55771 | 2063 ft | 152 kts | 178° |
| 2026-05-05 17:30 | 41.16624 | 28.55833 | 2078 ft | 153 kts | 181° |
| 2026-05-05 17:30 | 41.15538 | 28.55767 | 1931 ft | 162 kts | 186° |
| 2026-05-05 17:31 | 41.14537 | 28.55658 | 1729 ft | 126 kts | 187° |
| 2026-05-05 17:31 | 41.13725 | 28.55555 | 1639 ft | 115 kts | 188° |
| 2026-05-05 17:31 | 41.13002 | 28.55452 | 1599 ft | 93 kts | 188° |
| 2026-05-05 17:31 | 41.12424 | 28.55374 | 1535 ft | 77 kts | 187° |
| 2026-05-05 17:32 | 41.11985 | 28.55363 | 983 ft | 105 kts | 180° |
| 2026-05-05 17:32 | 41.11141 | 28.55455 | 304 ft | 108 kts | 174° |
| 2026-05-05 17:32 | 41.10606 | 28.55238 | 104 ft | 72 kts | 239° |
| 2026-05-05 17:32 | 41.10353 | 28.54760 | 40 ft | 53 kts | 242° |
| 2026-05-05 17:33 | 41.10213 | 28.54505 | 25 ft | 15 kts | 233° |
| 2026-05-05 17:33 | 41.10160 | 28.54475 | 22 ft | 9 kts | 96° |
| 2026-05-05 17:33 | 41.10206 | 28.54571 | 27 ft | 13 kts | 55° |
| 2026-05-05 17:33 | 41.10242 | 28.54638 | 31 ft | 5 kts | 54° |
| 2026-05-05 17:34 | 41.10308 | 28.54762 | 38 ft | 28 kts | 56° |
| 2026-05-05 17:34 | 41.10413 | 28.54959 | 47 ft | 16 kts | 57° |
| 2026-05-05 17:34 | 41.10415 | 28.55033 | 49 ft | 3 kts | 43° |
| 2026-05-05 17:34 | 41.10416 | 28.55055 | 49 ft | 5 kts | 158° |
| 2026-05-05 17:35 | 41.10411 | 28.55053 | 49 ft | 0 kts | 233° |